Time;durP1;ratioP1;P1;durP2;ratioP2;P2;SDS_P1;SDS_P2;PMS_P1;PMS_P2;Temp;Humidity;BMP_temperature;BMP_pressure;BME280_temperature;BME280_humidity;BME280_pressure;Samples;Min_cycle;Max_cycle;Signal;HPM_P1;HPM_P2
2021/11/23 00:00:53;;;;;;;53.88;26.80;;;-0.90;99.90;;;;;;4958651;28;20064;-68
2021/11/23 00:03:20;;;;;;;54.45;26.35;;;-0.90;99.90;;;;;;4963045;28;20433;-68
2021/11/23 00:05:48;;;;;;;44.38;24.92;;;-0.90;99.90;;;;;;4962211;28;20070;-68
2021/11/23 00:08:17;;;;;;;60.17;27.52;;;-0.80;99.90;;;;;;4962455;28;20069;-68
2021/11/23 00:10:45;;;;;;;46.33;23.15;;;-0.90;99.90;;;;;;4953243;28;20047;-68
2021/11/23 00:13:13;;;;;;;56.13;26.85;;;-0.80;99.90;;;;;;4948776;28;20051;-68
2021/11/23 00:15:40;;;;;;;56.88;25.83;;;-0.80;99.90;;;;;;4955921;28;20054;-68
2021/11/23 00:18:11;;;;;;;56.95;28.25;;;-0.70;99.90;;;;;;4960524;28;20077;-68
2021/11/23 00:20:40;;;;;;;44.33;23.95;;;-0.70;99.90;;;;;;4960176;28;20054;-68
2021/11/23 00:23:07;;;;;;;61.80;27.83;;;-0.70;99.90;;;;;;4962732;28;20054;-68
2021/11/23 00:25:34;;;;;;;57.83;26.92;;;-0.50;99.90;;;;;;4962546;28;20054;-68
2021/11/23 00:28:02;;;;;;;48.47;25.27;;;-0.50;99.90;;;;;;4946807;28;20054;-68
2021/11/23 00:30:32;;;;;;;64.85;27.65;;;-0.40;99.90;;;;;;4945469;28;20073;-68
2021/11/23 00:32:59;;;;;;;52.05;24.77;;;-0.40;99.90;;;;;;4953809;28;20448;-68
2021/11/23 00:35:27;;;;;;;51.63;25.63;;;-0.30;99.90;;;;;;4940809;28;20298;-69
2021/11/23 00:37:55;;;;;;;57.47;26.65;;;-0.30;99.90;;;;;;4960639;28;20058;-69
2021/11/23 00:40:22;;;;;;;46.30;23.60;;;-0.30;99.90;;;;;;4959418;28;20154;-69
2021/11/23 00:42:49;;;;;;;44.42;23.60;;;-0.40;99.90;;;;;;4958556;28;20076;-68
2021/11/23 00:45:17;;;;;;;49.60;23.88;;;-0.30;99.90;;;;;;4960476;28;20061;-68
2021/11/23 00:47:44;;;;;;;48.17;25.63;;;-0.40;99.90;;;;;;4958296;28;20286;-68
2021/11/23 00:50:12;;;;;;;56.10;25.38;;;-0.40;99.90;;;;;;4960200;28;20042;-68
2021/11/23 00:52:39;;;;;;;53.78;26.75;;;-0.40;99.90;;;;;;4959593;28;20427;-68
2021/11/23 00:55:07;;;;;;;51.47;26.48;;;-0.60;99.90;;;;;;4962233;28;20066;-68
2021/11/23 00:57:34;;;;;;;45.65;23.02;;;-0.70;99.90;;;;;;4960243;28;20058;-68
2021/11/23 01:00:01;;;;;;;41.95;22.90;;;-0.60;99.90;;;;;;4961427;28;20431;-68
2021/11/23 01:02:27;;;;;;;49.47;24.35;;;-0.70;99.90;;;;;;4960499;28;20423;-68
2021/11/23 01:04:54;;;;;;;43.00;22.15;;;-0.80;99.90;;;;;;4962185;28;20046;-68
2021/11/23 01:07:21;;;;;;;41.65;22.45;;;-0.90;99.90;;;;;;4959876;28;20418;-69
2021/11/23 01:09:48;;;;;;;48.00;23.98;;;-1.00;99.90;;;;;;4961956;28;20055;-69
2021/11/23 01:12:15;;;;;;;55.17;25.92;;;-1.00;99.90;;;;;;4956755;28;20524;-69
2021/11/23 01:14:42;;;;;;;52.15;25.23;;;-1.00;99.90;;;;;;4960864;28;20055;-69
2021/11/23 01:17:14;;;;;;;53.95;26.30;;;-1.00;99.90;;;;;;4960824;28;20051;-69
2021/11/23 01:19:43;;;;;;;52.75;25.50;;;-1.00;99.90;;;;;;4959490;28;20042;-69
2021/11/23 01:22:10;;;;;;;56.95;27.00;;;-1.10;99.90;;;;;;4961459;28;20062;-69
2021/11/23 01:24:37;;;;;;;58.78;27.52;;;-1.10;99.90;;;;;;4945629;28;20035;-69
2021/11/23 01:27:05;;;;;;;56.72;26.88;;;-1.10;99.90;;;;;;4960394;28;20419;-69
2021/11/23 01:29:33;;;;;;;58.45;26.70;;;-1.20;99.90;;;;;;4959527;28;20043;-69
2021/11/23 01:32:01;;;;;;;55.75;27.52;;;-1.10;99.90;;;;;;4961479;28;20051;-69
2021/11/23 01:34:28;;;;;;;50.85;24.20;;;-1.10;99.90;;;;;;4961410;28;20051;-69
2021/11/23 01:36:55;;;;;;;56.75;26.80;;;-1.20;99.90;;;;;;4962327;28;20058;-69
2021/11/23 01:39:24;;;;;;;57.20;26.13;;;-1.30;99.90;;;;;;4962200;28;20050;-69
2021/11/23 01:41:50;;;;;;;55.45;25.70;;;-1.30;99.90;;;;;;4958991;28;20062;-69
2021/11/23 01:44:17;;;;;;;58.78;27.50;;;-1.20;99.90;;;;;;4958526;28;20042;-69
2021/11/23 01:46:44;;;;;;;53.55;25.65;;;-1.30;99.90;;;;;;4961257;28;20059;-69
2021/11/23 01:49:11;;;;;;;63.00;29.30;;;-1.40;99.90;;;;;;4959967;28;20051;-68
2021/11/23 01:51:39;;;;;;;76.63;31.15;;;-1.30;99.90;;;;;;4960069;28;20054;-69
2021/11/23 01:54:05;;;;;;;68.07;29.42;;;-1.30;99.90;;;;;;4961152;28;20333;-68
2021/11/23 01:56:32;;;;;;;65.45;28.48;;;-1.30;99.90;;;;;;4959117;28;20405;-69
2021/11/23 01:59:00;;;;;;;64.07;28.92;;;-1.40;99.90;;;;;;4940341;28;20138;-69
2021/11/23 02:01:27;;;;;;;60.45;29.20;;;-1.50;99.90;;;;;;4956336;28;20062;-69
2021/11/23 02:03:56;;;;;;;67.57;28.60;;;-1.40;99.90;;;;;;4957183;28;20055;-69
2021/11/23 02:06:23;;;;;;;60.70;30.25;;;-1.20;99.90;;;;;;4955311;28;20063;-69
2021/11/23 02:08:50;;;;;;;69.07;29.23;;;-1.30;99.90;;;;;;4951127;28;20063;-69
2021/11/23 02:11:17;;;;;;;62.10;29.58;;;-1.20;99.90;;;;;;4954044;28;20043;-69
2021/11/23 02:13:44;;;;;;;68.22;31.13;;;-1.10;99.90;;;;;;4958081;28;20059;-69
2021/11/23 02:16:10;;;;;;;59.70;27.67;;;-1.00;99.90;;;;;;4960312;28;20078;-69
2021/11/23 02:18:37;;;;;;;57.80;26.98;;;-1.20;99.90;;;;;;4959290;28;20070;-69
2021/11/23 02:21:04;;;;;;;61.30;28.45;;;-1.20;99.90;;;;;;4958064;28;20062;-69
2021/11/23 02:23:32;;;;;;;64.35;27.20;;;-1.20;99.90;;;;;;4962378;28;20047;-68
2021/11/23 02:25:59;;;;;;;54.33;27.15;;;-1.30;99.90;;;;;;4965275;28;20054;-69
2021/11/23 02:28:26;;;;;;;61.08;27.45;;;-1.40;99.90;;;;;;4941652;28;20512;-69
2021/11/23 02:30:56;;;;;;;62.08;27.67;;;-1.40;99.90;;;;;;4961913;28;20070;-68
2021/11/23 02:33:24;;;;;;;63.13;28.05;;;-1.30;99.90;;;;;;4964128;28;20046;-69
2021/11/23 02:35:54;;;;;;;61.88;28.20;;;-1.40;99.90;;;;;;4978909;28;20051;-68
2021/11/23 02:38:23;;;;;;;72.93;28.45;;;-1.20;99.90;;;;;;4963123;28;20081;-69
2021/11/23 02:40:50;;;;;;;70.35;29.50;;;-1.20;99.90;;;;;;4958900;28;20059;-67
2021/11/23 02:43:17;;;;;;;83.38;33.33;;;-1.20;99.90;;;;;;4961495;28;20377;-68
2021/11/23 02:45:44;;;;;;;85.47;34.33;;;-1.10;99.90;;;;;;4977347;28;20054;-67
2021/11/23 02:48:13;;;;;;;88.15;32.97;;;-1.00;99.90;;;;;;4964549;28;20071;-67
2021/11/23 02:50:44;;;;;;;78.85;32.33;;;-1.00;99.90;;;;;;4962139;28;20105;-68
2021/11/23 02:53:11;;;;;;;76.00;31.60;;;-0.90;99.90;;;;;;4964270;28;20055;-70
2021/11/23 02:55:38;;;;;;;86.93;32.63;;;-0.80;99.90;;;;;;4964133;28;20039;-67
2021/11/23 02:58:06;;;;;;;64.15;29.30;;;-0.60;99.90;;;;;;4961705;28;20059;-68
2021/11/23 03:00:35;;;;;;;60.13;27.73;;;-0.70;99.90;;;;;;4963104;28;20085;-67
2021/11/23 03:03:02;;;;;;;72.43;29.88;;;-0.60;99.90;;;;;;4947248;28;20050;-67
2021/11/23 03:05:29;;;;;;;73.60;30.13;;;-0.60;99.90;;;;;;4962917;28;20043;-68
2021/11/23 03:07:57;;;;;;;76.57;30.20;;;-0.60;99.90;;;;;;4962348;28;20393;-68
2021/11/23 03:10:28;;;;;;;86.25;31.85;;;-0.50;99.90;;;;;;4960725;28;20286;-67
2021/11/23 03:12:56;;;;;;;73.80;30.35;;;-0.50;99.90;;;;;;4954357;28;20516;-69
2021/11/23 03:15:25;;;;;;;75.45;30.08;;;-0.50;99.90;;;;;;4961085;28;20057;-67
2021/11/23 03:17:53;;;;;;;74.90;31.00;;;-0.40;99.90;;;;;;4963698;28;20088;-68
2021/11/23 03:20:21;;;;;;;70.43;30.00;;;-0.30;99.90;;;;;;4962211;28;20586;-67
2021/11/23 03:22:49;;;;;;;70.32;29.52;;;-0.30;99.90;;;;;;4960477;28;20424;-68
2021/11/23 03:25:17;;;;;;;73.28;32.22;;;-0.20;99.90;;;;;;4957595;28;20051;-68
2021/11/23 03:27:44;;;;;;;89.22;34.30;;;-0.20;99.90;;;;;;4958432;28;20058;-68
2021/11/23 03:30:13;;;;;;;91.00;36.38;;;0.00;99.90;;;;;;4958608;28;20105;-68
2021/11/23 03:32:41;;;;;;;71.25;30.27;;;0.10;99.90;;;;;;4944813;28;20057;-68
2021/11/23 03:35:08;;;;;;;91.28;37.03;;;0.20;99.90;;;;;;4961192;28;20141;-68
2021/11/23 03:37:35;;;;;;;84.40;33.25;;;0.30;99.90;;;;;;4955926;28;20082;-68
2021/11/23 03:40:04;;;;;;;84.80;33.03;;;0.50;99.90;;;;;;4959766;28;20055;-68
2021/11/23 03:42:31;;;;;;;79.88;35.33;;;0.50;99.90;;;;;;4954764;28;20043;-68
2021/11/23 03:44:58;;;;;;;73.45;31.05;;;0.60;99.90;;;;;;4959018;28;20051;-68
2021/11/23 03:47:30;;;;;;;73.25;34.15;;;0.70;99.90;;;;;;4961024;28;20078;-67
2021/11/23 03:49:58;;;;;;;76.25;33.88;;;0.70;99.90;;;;;;4960294;28;20047;-68
2021/11/23 03:52:25;;;;;;;71.45;31.38;;;0.80;99.90;;;;;;4958419;28;20046;-68
2021/11/23 03:54:53;;;;;;;74.47;32.10;;;1.00;99.90;;;;;;4944722;28;20046;-68
2021/11/23 03:57:20;;;;;;;63.35;30.40;;;1.20;99.90;;;;;;4941034;28;20055;-68
2021/11/23 03:59:48;;;;;;;68.28;30.48;;;1.30;99.90;;;;;;4923760;29;20058;-68
2021/11/23 04:02:18;;;;;;;60.67;28.02;;;1.30;99.90;;;;;;4954320;28;20050;-68
2021/11/23 04:04:45;;;;;;;59.00;28.83;;;1.30;99.90;;;;;;4960089;28;20061;-69
2021/11/23 04:07:13;;;;;;;54.65;27.13;;;1.30;99.90;;;;;;4959777;28;20051;-68
2021/11/23 04:09:40;;;;;;;62.80;28.40;;;1.30;99.90;;;;;;4958794;28;20138;-68
2021/11/23 04:12:08;;;;;;;59.60;27.48;;;1.30;99.90;;;;;;4956293;28;20058;-69
2021/11/23 04:14:36;;;;;;;56.25;28.23;;;1.40;99.90;;;;;;4951937;28;20058;-69
2021/11/23 04:17:03;;;;;;;51.13;25.23;;;1.40;99.90;;;;;;4959230;28;20113;-68
2021/11/23 04:19:30;;;;;;;52.90;26.92;;;1.40;99.90;;;;;;4960917;28;20388;-69
2021/11/23 04:21:58;;;;;;;53.38;25.63;;;1.50;99.90;;;;;;4960524;28;20051;-70
2021/11/23 04:24:25;;;;;;;51.97;26.30;;;1.50;99.90;;;;;;4960146;28;20066;-69
2021/11/23 04:26:52;;;;;;;54.45;25.85;;;1.60;99.90;;;;;;4958765;28;20508;-69
2021/11/23 04:29:19;;;;;;;50.72;25.60;;;1.60;99.90;;;;;;4954004;28;20061;-69
2021/11/23 04:31:46;;;;;;;56.65;27.05;;;1.70;99.90;;;;;;4960808;28;20078;-69
2021/11/23 04:34:13;;;;;;;53.65;26.63;;;1.70;99.90;;;;;;4941137;28;20059;-70
2021/11/23 04:36:40;;;;;;;52.08;26.30;;;1.70;99.90;;;;;;4959913;28;20098;-69
2021/11/23 04:39:07;;;;;;;51.78;27.67;;;1.70;99.90;;;;;;4959090;28;20057;-69
2021/11/23 04:41:35;;;;;;;52.03;26.70;;;1.80;99.90;;;;;;4956465;28;20047;-70
2021/11/23 04:44:02;;;;;;;53.00;26.85;;;1.80;99.90;;;;;;4970200;28;20065;-70
2021/11/23 04:46:30;;;;;;;54.70;27.60;;;1.80;99.90;;;;;;4958372;28;20097;-70
2021/11/23 04:48:57;;;;;;;60.70;29.42;;;1.80;99.90;;;;;;4961011;28;20282;-70
2021/11/23 04:51:24;;;;;;;60.42;29.25;;;1.90;99.90;;;;;;4958759;28;20105;-70
2021/11/23 04:53:51;;;;;;;58.03;26.90;;;1.90;99.90;;;;;;4959458;28;20062;-70
2021/11/23 04:56:18;;;;;;;64.07;29.50;;;1.90;99.90;;;;;;4959810;28;20062;-70
2021/11/23 04:58:45;;;;;;;54.50;27.67;;;1.90;99.90;;;;;;4958567;28;20042;-70
2021/11/23 05:01:12;;;;;;;57.42;31.15;;;2.00;99.90;;;;;;4958918;28;20053;-70
2021/11/23 05:03:39;;;;;;;59.83;29.35;;;2.00;99.90;;;;;;4960095;28;20146;-70
2021/11/23 05:06:06;;;;;;;58.75;27.77;;;2.00;99.90;;;;;;4960642;28;20042;-70
2021/11/23 05:08:33;;;;;;;59.47;30.23;;;2.10;99.90;;;;;;4941438;28;20066;-70
2021/11/23 05:11:00;;;;;;;62.78;30.33;;;2.10;99.90;;;;;;4961201;28;20058;-69
2021/11/23 05:13:27;;;;;;;58.38;28.40;;;2.20;99.90;;;;;;4971658;28;20411;-69
2021/11/23 05:15:53;;;;;;;58.22;28.73;;;2.10;99.90;;;;;;4960023;28;20410;-69
2021/11/23 05:18:20;;;;;;;60.78;29.25;;;2.10;99.90;;;;;;4960708;28;20478;-69
2021/11/23 05:20:47;;;;;;;63.30;29.80;;;2.10;99.90;;;;;;4960499;28;20058;-69
2021/11/23 05:23:14;;;;;;;71.15;32.22;;;2.10;99.90;;;;;;4946830;28;20260;-69
2021/11/23 05:25:40;;;;;;;75.45;33.65;;;2.10;99.90;;;;;;4941103;28;20047;-70
2021/11/23 05:28:07;;;;;;;77.28;36.80;;;2.20;99.90;;;;;;4956858;28;20134;-70
2021/11/23 05:30:35;;;;;;;83.63;41.08;;;2.20;99.90;;;;;;4941590;28;20058;-69
2021/11/23 05:33:02;;;;;;;93.97;40.88;;;2.20;99.90;;;;;;4943766;29;20054;-69
2021/11/23 05:35:29;;;;;;;158.70;45.53;;;2.30;99.90;;;;;;4943262;28;20123;-69
2021/11/23 05:37:56;;;;;;;98.80;41.58;;;2.30;99.90;;;;;;4958089;28;20094;-70
2021/11/23 05:40:22;;;;;;;95.75;43.40;;;2.30;99.90;;;;;;4957335;28;20061;-71
2021/11/23 05:42:49;;;;;;;102.95;43.47;;;2.40;99.90;;;;;;4970577;28;20047;-70
2021/11/23 05:45:16;;;;;;;93.45;40.40;;;2.40;99.90;;;;;;4959130;28;20069;-70
2021/11/23 05:47:43;;;;;;;113.55;43.53;;;2.50;99.90;;;;;;4959174;28;20082;-72
2021/11/23 05:50:10;;;;;;;111.88;43.47;;;2.50;99.90;;;;;;4961299;28;20051;-72
2021/11/23 05:52:37;;;;;;;118.25;46.10;;;2.60;99.90;;;;;;4959249;28;20068;-71
2021/11/23 05:55:04;;;;;;;121.57;49.50;;;2.50;99.90;;;;;;4959709;28;20435;-70
2021/11/23 05:57:31;;;;;;;127.90;51.17;;;2.60;99.90;;;;;;4959619;28;20054;-71
2021/11/23 05:59:58;;;;;;;133.25;52.28;;;2.60;99.90;;;;;;4965694;28;20456;-72
2021/11/23 06:02:25;;;;;;;144.95;55.67;;;2.60;99.90;;;;;;4963897;28;20504;-73
2021/11/23 06:04:51;;;;;;;134.50;53.95;;;2.60;99.90;;;;;;4933717;28;20142;-72
2021/11/23 06:07:18;;;;;;;146.73;55.63;;;2.60;99.90;;;;;;4946667;28;20043;-72
2021/11/23 06:09:45;;;;;;;142.05;53.42;;;2.60;99.90;;;;;;4964413;28;20518;-73
2021/11/23 06:12:12;;;;;;;204.27;59.03;;;2.70;99.90;;;;;;4962398;28;20050;-73
2021/11/23 06:14:40;;;;;;;157.07;54.83;;;2.70;99.90;;;;;;4962086;28;20062;-73
2021/11/23 06:17:10;;;;;;;141.52;53.05;;;2.70;99.90;;;;;;4961666;28;20341;-73
2021/11/23 06:19:37;;;;;;;137.20;50.30;;;2.70;99.90;;;;;;4964722;28;20059;-71
2021/11/23 06:22:06;;;;;;;119.03;45.30;;;2.80;99.90;;;;;;4946610;28;20385;-72
2021/11/23 06:24:33;;;;;;;112.65;44.78;;;2.70;99.90;;;;;;4964176;28;20333;-72
2021/11/23 06:27:00;;;;;;;128.18;46.28;;;2.70;99.90;;;;;;4961281;28;20447;-72
2021/11/23 06:29:27;;;;;;;118.30;43.13;;;2.80;99.90;;;;;;4960053;28;20050;-72
2021/11/23 06:31:54;;;;;;;129.60;45.78;;;2.70;99.90;;;;;;4961552;28;20055;-73
2021/11/23 06:34:21;;;;;;;121.70;45.25;;;2.80;99.90;;;;;;4964837;28;20069;-72
2021/11/23 06:36:48;;;;;;;132.07;45.40;;;2.80;99.90;;;;;;4961161;28;20055;-73
2021/11/23 06:39:15;;;;;;;144.77;48.53;;;2.80;99.90;;;;;;4963235;28;20067;-73
2021/11/23 06:41:42;;;;;;;123.78;47.80;;;2.90;99.90;;;;;;4957420;28;20043;-73
2021/11/23 06:44:08;;;;;;;199.85;52.85;;;2.90;99.90;;;;;;4973478;28;20050;-72
2021/11/23 06:46:35;;;;;;;147.00;48.83;;;2.90;99.90;;;;;;4959780;28;20090;-72
2021/11/23 06:49:03;;;;;;;146.15;48.28;;;2.90;99.90;;;;;;4962276;28;20106;-72
2021/11/23 06:51:30;;;;;;;132.43;44.72;;;3.00;99.90;;;;;;4976346;28;20063;-73
2021/11/23 06:53:57;;;;;;;129.95;44.08;;;3.00;99.90;;;;;;4960517;28;20039;-73
2021/11/23 06:56:25;;;;;;;119.90;40.22;;;3.00;99.90;;;;;;4975099;28;20055;-72
2021/11/23 06:58:52;;;;;;;124.20;41.55;;;3.00;99.90;;;;;;4942606;28;20043;-72
2021/11/23 07:01:19;;;;;;;149.13;45.17;;;3.00;99.90;;;;;;4941200;28;20413;-71
2021/11/23 07:03:46;;;;;;;245.63;56.03;;;3.10;99.90;;;;;;4956862;28;20589;-71
2021/11/23 07:06:13;;;;;;;162.32;45.83;;;3.00;99.90;;;;;;4946295;28;20199;-72
2021/11/23 07:08:40;;;;;;;147.80;46.63;;;3.00;99.90;;;;;;4943976;28;20050;-71
2021/11/23 07:11:07;;;;;;;153.38;43.95;;;3.00;99.90;;;;;;4946035;28;20039;-72
2021/11/23 07:13:35;;;;;;;147.20;44.90;;;3.00;99.90;;;;;;4942120;28;20067;-72
2021/11/23 07:16:02;;;;;;;147.18;43.17;;;3.10;99.90;;;;;;4960939;28;20081;-72
2021/11/23 07:18:29;;;;;;;113.32;36.80;;;3.10;99.90;;;;;;4965107;28;20039;-71
2021/11/23 07:20:57;;;;;;;139.85;39.42;;;3.10;99.90;;;;;;4964692;28;20058;-71
2021/11/23 07:23:40;;;;;;;139.63;39.95;;;3.20;99.90;;;;;;4963924;28;20039;-71
2021/11/23 07:26:07;;;;;;;127.60;39.65;;;3.20;99.90;;;;;;4962596;28;20531;-72
2021/11/23 07:28:34;;;;;;;128.00;39.47;;;3.20;99.90;;;;;;4959869;28;20038;-72
2021/11/23 07:31:01;;;;;;;138.88;39.88;;;3.20;99.90;;;;;;4961377;28;20050;-72
2021/11/23 07:33:28;;;;;;;154.70;40.47;;;3.20;99.90;;;;;;4944097;28;20050;-72
2021/11/23 07:35:54;;;;;;;149.13;39.97;;;3.30;99.90;;;;;;4962940;28;20059;-72
2021/11/23 07:38:21;;;;;;;168.88;43.83;;;3.30;99.90;;;;;;4961677;28;20059;-72
2021/11/23 07:40:48;;;;;;;206.73;47.50;;;3.50;99.90;;;;;;4972557;28;20058;-72
2021/11/23 07:43:15;;;;;;;171.70;43.97;;;3.50;99.90;;;;;;4958161;28;20043;-72
2021/11/23 07:45:42;;;;;;;171.15;44.53;;;3.50;99.90;;;;;;4960855;28;20047;-72
2021/11/23 07:48:09;;;;;;;162.85;42.75;;;3.40;99.90;;;;;;4962836;28;20062;-71
2021/11/23 07:50:38;;;;;;;144.88;39.05;;;3.40;99.90;;;;;;4961368;28;20109;-71
2021/11/23 07:53:05;;;;;;;155.43;39.80;;;3.40;99.90;;;;;;4961606;28;20554;-72
2021/11/23 07:55:33;;;;;;;155.52;39.05;;;3.40;99.90;;;;;;4964387;28;20423;-72
2021/11/23 07:58:00;;;;;;;131.40;37.83;;;3.50;99.90;;;;;;4961455;28;20495;-72
2021/11/23 08:00:28;;;;;;;140.68;37.13;;;3.50;99.90;;;;;;4960024;28;20111;-72
2021/11/23 08:02:56;;;;;;;142.65;39.42;;;3.50;99.90;;;;;;4945796;28;20047;-72
2021/11/23 08:05:23;;;;;;;131.50;36.03;;;3.50;99.90;;;;;;4962314;28;20058;-72
2021/11/23 08:07:50;;;;;;;129.70;37.35;;;3.60;99.90;;;;;;4960188;28;20110;-72
2021/11/23 08:10:17;;;;;;;129.18;36.85;;;3.60;99.90;;;;;;4962623;28;20358;-72
2021/11/23 08:12:45;;;;;;;133.30;36.03;;;3.60;99.90;;;;;;4941516;28;20121;-72
2021/11/23 08:15:13;;;;;;;137.43;36.08;;;3.60;99.90;;;;;;4955372;28;20051;-72
2021/11/23 08:17:40;;;;;;;157.23;36.85;;;3.60;99.90;;;;;;4960296;28;20062;-72
2021/11/23 08:20:09;;;;;;;123.70;34.53;;;3.60;99.90;;;;;;4962000;28;20054;-72
2021/11/23 08:22:37;;;;;;;155.48;38.53;;;3.70;99.90;;;;;;4909430;28;20416;-72
2021/11/23 08:25:05;;;;;;;115.78;32.95;;;3.70;99.90;;;;;;4946040;28;20078;-72
2021/11/23 08:27:32;;;;;;;152.95;37.30;;;3.80;99.90;;;;;;4961465;28;20062;-72
2021/11/23 08:30:00;;;;;;;138.07;36.28;;;3.80;99.90;;;;;;4929175;28;20121;-72
2021/11/23 08:32:27;;;;;;;135.60;35.08;;;3.80;99.90;;;;;;4928588;28;20122;-72
2021/11/23 08:34:54;;;;;;;119.43;33.83;;;3.80;99.90;;;;;;4945331;28;20058;-72
2021/11/23 08:37:20;;;;;;;190.20;39.75;;;3.80;99.90;;;;;;4941952;28;20050;-73
2021/11/23 08:39:47;;;;;;;132.57;35.63;;;3.80;99.90;;;;;;4940532;28;20051;-73
2021/11/23 08:42:18;;;;;;;152.90;35.97;;;3.90;99.90;;;;;;4950663;28;20449;-73
2021/11/23 08:44:45;;;;;;;170.60;39.58;;;3.80;99.90;;;;;;4959014;28;20063;-73
2021/11/23 08:47:11;;;;;;;164.80;37.88;;;3.80;99.90;;;;;;4940169;28;20467;-74
2021/11/23 08:49:39;;;;;;;191.98;40.63;;;3.90;99.90;;;;;;4960277;28;20047;-73
2021/11/23 08:52:06;;;;;;;215.48;42.30;;;4.00;99.90;;;;;;4944188;28;20062;-73
2021/11/23 08:54:33;;;;;;;229.40;44.42;;;4.00;99.90;;;;;;4953583;28;20055;-73
2021/11/23 08:57:04;;;;;;;314.85;50.00;;;4.00;99.90;;;;;;4944159;28;20042;-74
2021/11/23 08:59:34;;;;;;;215.20;39.70;;;4.00;99.90;;;;;;4944265;28;20499;-72
2021/11/23 09:02:01;;;;;;;286.73;48.10;;;4.00;99.90;;;;;;4943873;28;20055;-72
2021/11/23 09:04:29;;;;;;;371.08;53.42;;;4.00;99.90;;;;;;4943846;28;20051;-72
2021/11/23 09:07:00;;;;;;;437.92;58.13;;;4.00;99.90;;;;;;4961819;28;20047;-74
2021/11/23 09:09:28;;;;;;;456.02;56.53;;;4.00;99.90;;;;;;4961317;28;20051;-73
2021/11/23 09:11:56;;;;;;;517.70;62.13;;;3.90;99.90;;;;;;4942790;28;20516;-73
2021/11/23 09:14:24;;;;;;;512.97;62.35;;;4.10;99.90;;;;;;4959496;28;20051;-73
2021/11/23 09:16:51;;;;;;;549.92;69.40;;;4.00;99.90;;;;;;4942877;28;20050;-72
2021/11/23 09:19:18;;;;;;;545.55;64.28;;;4.00;99.90;;;;;;4942424;28;20201;-73
2021/11/23 09:21:45;;;;;;;445.05;57.45;;;4.00;99.90;;;;;;4942272;28;20451;-74
2021/11/23 09:24:12;;;;;;;459.52;55.88;;;4.00;99.90;;;;;;4961307;28;20117;-73
2021/11/23 09:26:39;;;;;;;598.78;68.55;;;4.10;99.90;;;;;;4944587;28;20058;-74
2021/11/23 09:29:06;;;;;;;536.08;64.57;;;4.20;99.90;;;;;;4944878;28;20054;-74
2021/11/23 09:31:33;;;;;;;553.30;68.00;;;4.20;99.90;;;;;;4943607;28;20063;-73
2021/11/23 09:34:00;;;;;;;623.88;70.05;;;4.20;99.90;;;;;;4949745;28;20704;-74
2021/11/23 09:36:27;;;;;;;630.33;74.15;;;4.30;99.90;;;;;;4932055;28;20055;-73
2021/11/23 09:38:54;;;;;;;595.58;73.28;;;4.30;99.90;;;;;;4947978;28;20559;-75
2021/11/23 09:41:20;;;;;;;629.97;72.13;;;4.30;99.90;;;;;;4940342;28;20058;-72
2021/11/23 09:43:47;;;;;;;642.60;76.65;;;4.20;99.90;;;;;;4959831;28;20975;-72
2021/11/23 09:46:14;;;;;;;723.58;92.10;;;4.20;99.90;;;;;;4963227;28;20404;-77
2021/11/23 09:48:43;;;;;;;677.08;81.55;;;4.20;99.90;;;;;;4931768;28;20054;-72
2021/11/23 09:51:23;;;;;;;660.83;82.70;;;4.30;99.90;;;;;;4949072;28;20051;-72
2021/11/23 09:53:51;;;;;;;710.35;93.00;;;4.40;99.90;;;;;;4932787;28;20563;-74
2021/11/23 09:56:18;;;;;;;660.33;80.53;;;4.50;99.90;;;;;;4964668;28;20663;-73
2021/11/23 09:58:47;;;;;;;659.80;79.97;;;4.40;99.90;;;;;;4965543;28;20046;-74
2021/11/23 10:01:13;;;;;;;722.85;86.47;;;4.50;99.90;;;;;;4947119;28;20047;-73
2021/11/23 10:03:41;;;;;;;662.67;79.97;;;4.30;99.90;;;;;;4966354;28;20058;-74
2021/11/23 10:06:14;;;;;;;639.83;77.13;;;4.30;99.90;;;;;;4923043;29;20519;-74
2021/11/23 10:08:43;;;;;;;636.33;81.05;;;4.30;99.90;;;;;;4911449;29;20530;-74
2021/11/23 10:11:19;;;;;;;759.90;97.68;;;4.30;99.90;;;;;;4920532;28;20058;-74
2021/11/23 10:13:49;;;;;;;671.70;86.32;;;4.30;99.90;;;;;;4944194;28;20064;-74
2021/11/23 10:16:18;;;;;;;565.28;75.43;;;4.30;99.90;;;;;;4962554;28;20736;-75
2021/11/23 10:18:52;;;;;;;605.30;80.65;;;4.30;99.90;;;;;;4954192;28;20066;-74
2021/11/23 10:21:24;;;;;;;697.65;88.28;;;4.40;99.90;;;;;;4925028;28;20051;-73
2021/11/23 10:23:52;;;;;;;677.78;82.45;;;4.40;99.90;;;;;;4960186;28;20051;-73
2021/11/23 10:26:37;;;;;;;682.50;80.05;;;4.40;99.90;;;;;;4928617;28;20053;-73
2021/11/23 10:29:07;;;;;;;708.95;82.68;;;4.40;99.90;;;;;;4946067;28;20061;-73
2021/11/23 10:31:43;;;;;;;561.67;76.97;;;4.50;99.90;;;;;;4944588;28;20438;-73
2021/11/23 10:34:16;;;;;;;414.17;55.20;;;4.50;99.90;;;;;;4948088;28;20101;-73
2021/11/23 10:36:48;;;;;;;528.15;67.43;;;4.40;99.90;;;;;;4947805;28;20137;-72
2021/11/23 10:39:23;;;;;;;650.40;84.70;;;4.30;99.90;;;;;;4945700;28;20302;-72
2021/11/23 10:41:53;;;;;;;415.65;62.72;;;4.40;99.90;;;;;;4917604;28;20678;-72
2021/11/23 10:44:27;;;;;;;668.08;88.32;;;4.40;99.90;;;;;;4972483;28;20206;-74
2021/11/23 10:46:57;;;;;;;565.53;74.65;;;4.40;99.90;;;;;;4929112;28;20047;-73
2021/11/23 10:49:33;;;;;;;571.70;76.53;;;4.50;99.90;;;;;;4946300;28;20051;-72
2021/11/23 10:52:02;;;;;;;650.05;83.18;;;4.50;99.90;;;;;;4918644;28;20070;-73
2021/11/23 10:54:32;;;;;;;691.08;84.88;;;4.60;99.90;;;;;;4955783;28;20043;-72
2021/11/23 10:57:03;;;;;;;662.85;83.68;;;4.60;99.90;;;;;;4935600;28;20049;-73
2021/11/23 10:59:37;;;;;;;651.58;82.00;;;4.60;99.90;;;;;;4951987;28;20059;-72
2021/11/23 11:02:04;;;;;;;623.20;83.13;;;4.60;99.90;;;;;;4953815;28;20047;-73
2021/11/23 11:04:35;;;;;;;800.55;98.05;;;4.60;99.90;;;;;;4953237;28;20162;-72
2021/11/23 11:07:04;;;;;;;712.20;85.53;;;4.60;99.90;;;;;;4937119;28;20046;-72
2021/11/23 11:09:32;;;;;;;815.03;102.22;;;4.60;99.90;;;;;;4952432;28;20047;-73
2021/11/23 11:11:59;;;;;;;827.30;105.18;;;4.60;99.90;;;;;;4952959;28;20042;-73
2021/11/23 11:14:30;;;;;;;737.47;93.63;;;4.60;99.90;;;;;;4947262;28;20058;-72
2021/11/23 11:16:57;;;;;;;656.47;89.95;;;4.60;99.90;;;;;;4964233;28;20054;-73
2021/11/23 11:19:41;;;;;;;638.45;84.28;;;4.60;99.90;;;;;;4945728;28;20139;-73
2021/11/23 11:22:08;;;;;;;702.60;89.60;;;4.60;99.90;;;;;;4927871;28;20088;-73
2021/11/23 11:24:43;;;;;;;738.85;89.72;;;4.60;99.90;;;;;;4944489;28;20039;-73
2021/11/23 11:27:38;;;;;;;681.22;87.63;;;4.60;99.90;;;;;;4945776;28;20515;-72
2021/11/23 11:30:33;;;;;;;616.33;81.60;;;4.60;99.90;;;;;;4963890;28;20047;-73
2021/11/23 11:33:14;;;;;;;596.35;75.57;;;4.70;99.90;;;;;;4961752;28;20050;-72
2021/11/23 11:35:46;;;;;;;696.53;84.35;;;4.70;99.90;;;;;;4946185;28;20053;-71
2021/11/23 11:38:26;;;;;;;726.03;89.63;;;4.70;99.90;;;;;;4957011;28;20055;-73
2021/11/23 11:41:02;;;;;;;690.92;84.05;;;4.70;99.90;;;;;;4940739;28;20050;-73
2021/11/23 11:43:40;;;;;;;645.28;78.78;;;4.60;99.90;;;;;;4975641;28;20133;-73
2021/11/23 11:46:10;;;;;;;832.67;97.38;;;4.60;99.90;;;;;;4944968;28;20055;-73
2021/11/23 11:48:37;;;;;;;633.03;80.78;;;4.60;99.90;;;;;;4944412;28;20468;-73
2021/11/23 11:51:07;;;;;;;665.28;84.47;;;4.80;99.90;;;;;;4936067;28;20051;-73
2021/11/23 11:53:39;;;;;;;822.60;109.72;;;4.80;99.90;;;;;;4945623;28;20488;-73
2021/11/23 11:56:06;;;;;;;714.47;92.45;;;4.80;99.90;;;;;;4959238;28;20061;-73
2021/11/23 11:58:44;;;;;;;607.70;78.75;;;4.80;99.90;;;;;;4916713;28;20065;-73
2021/11/23 12:01:23;;;;;;;654.90;86.32;;;4.80;99.90;;;;;;4951717;28;20146;-73
2021/11/23 12:04:02;;;;;;;684.50;89.30;;;4.80;99.90;;;;;;4964103;28;20050;-73
2021/11/23 12:07:04;;;;;;;574.08;71.72;;;4.90;99.90;;;;;;4944576;28;20038;-73
2021/11/23 12:09:37;;;;;;;629.80;77.82;;;4.70;99.90;;;;;;4945279;28;20047;-73
2021/11/23 12:12:10;;;;;;;683.53;91.78;;;4.80;99.90;;;;;;4929142;28;20038;-73
2021/11/23 12:14:53;;;;;;;638.03;79.10;;;4.80;99.90;;;;;;4956098;28;20054;-73
2021/11/23 12:18:01;;;;;;;620.83;75.75;;;4.90;99.90;;;;;;4944056;28;20138;-73
2021/11/23 12:20:28;;;;;;;662.53;83.75;;;4.80;99.90;;;;;;4956682;28;20483;-70
2021/11/23 12:23:16;;;;;;;673.35;83.05;;;4.90;99.90;;;;;;4912431;29;20061;-73
2021/11/23 12:25:58;;;;;;;640.70;79.82;;;4.80;99.90;;;;;;4932448;28;20051;-71
2021/11/23 12:28:27;;;;;;;625.47;79.68;;;4.80;99.90;;;;;;4958619;28;20819;-74
2021/11/23 12:30:55;;;;;;;635.15;81.15;;;4.80;99.90;;;;;;4960386;28;20074;-71
2021/11/23 12:33:23;;;;;;;699.35;92.22;;;4.80;99.90;;;;;;4961758;28;20055;-72
2021/11/23 12:35:50;;;;;;;773.60;93.55;;;4.80;99.90;;;;;;4963124;28;20046;-71